Time;durP1;ratioP1;P1;durP2;ratioP2;P2;SDS_P1;SDS_P2;PMS_P1;PMS_P2;Temp;Humidity;BMP_temperature;BMP_pressure;BME280_temperature;BME280_humidity;BME280_pressure;Samples;Min_cycle;Max_cycle;Signal;HPM_P1;HPM_P2
2021/01/21 00:00:46;;;;;;;;;;;;;;;8.68;55.97;99074.22;6211424;23;20015;-76
2021/01/21 00:03:12;;;;;;;;;;;;;;;8.66;55.99;99076.06;6230164;23;19947;-76
2021/01/21 00:05:42;;;;;;;;;;;;;;;8.64;56.21;99062.94;6229352;23;19924;-76
2021/01/21 00:08:09;;;;;;;;;;;;;;;8.62;55.98;99069.22;6236254;23;19934;-75
2021/01/21 00:10:36;;;;;;;;;;;;;;;8.61;56.80;99070.13;6235434;23;19924;-76
2021/01/21 00:13:02;;;;;;;;;;;;;;;8.60;56.10;99065.78;6237032;23;19927;-76
2021/01/21 00:15:29;;;;;;;;;;;;;;;8.58;57.19;99068.50;6231481;23;19928;-76
2021/01/21 00:17:59;;;;;;;;;;;;;;;8.55;57.13;99063.38;6196245;23;20185;-75
2021/01/21 00:20:27;;;;;;;;;;;;;;;8.55;57.30;99063.38;6195043;23;19928;-76
2021/01/21 00:22:55;;;;;;;;;;;;;;;8.53;57.05;99052.03;6197177;23;20737;-75
2021/01/21 00:25:21;;;;;;;;;;;;;;;8.52;57.71;99060.03;6170126;23;19994;-75
2021/01/21 00:27:48;;;;;;;;;;;;;;;8.50;57.88;99056.59;6198522;23;20252;-75
2021/01/21 00:30:15;;;;;;;;;;;;;;;8.62;56.78;99056.88;6194436;23;20117;-76
2021/01/21 00:32:42;;;;;;;;;;;;;;;8.82;55.09;99054.25;6192957;23;19924;-75
2021/01/21 00:35:10;;;;;;;;;;;;;;;8.93;53.54;99051.94;6205645;23;20042;-76
2021/01/21 00:37:37;;;;;;;;;;;;;;;9.00;51.90;99055.16;6206587;23;19924;-76
2021/01/21 00:40:06;;;;;;;;;;;;;;;9.01;51.66;99052.44;6180280;23;20314;-75
2021/01/21 00:42:32;;;;;;;;;;;;;;;9.05;50.98;99047.84;6197875;23;19923;-75
2021/01/21 00:44:59;;;;;;;;;;;;;;;9.08;50.75;99045.09;6193706;23;19942;-76
2021/01/21 00:47:27;;;;;;;;;;;;;;;9.09;49.48;99034.47;6191346;23;19930;-76
2021/01/21 00:49:54;;;;;;;;;;;;;;;9.12;48.87;99034.31;6197920;23;20666;-76
2021/01/21 00:52:21;;;;;;;;;;;;;;;9.14;48.15;99034.25;6197099;23;19935;-75
2021/01/21 00:54:48;;;;;;;;;;;;;;;9.17;48.39;99034.09;6170444;23;20267;-75
2021/01/21 00:57:18;;;;;;;;;;;;;;;9.17;47.96;99025.34;6199004;23;19924;-76
2021/01/21 00:59:45;;;;;;;;;;;;;;;9.16;46.71;99029.75;6165926;23;19999;-76
2021/01/21 01:02:12;;;;;;;;;;;;;;;9.08;47.95;99024.00;6198697;23;20358;-75
2021/01/21 01:04:40;;;;;;;;;;;;;;;8.89;48.60;99024.00;6197744;23;19984;-76
2021/01/21 01:07:08;;;;;;;;;;;;;;;8.75;50.05;99014.16;6172266;23;19935;-76
2021/01/21 01:09:36;;;;;;;;;;;;;;;8.65;51.15;99021.63;6198024;23;19979;-76
2021/01/21 01:12:03;;;;;;;;;;;;;;;8.59;50.90;99011.38;6171136;23;19950;-76
2021/01/21 01:14:36;;;;;;;;;;;;;;;8.54;51.88;99010.75;6170503;23;19944;-76
2021/01/21 01:17:04;;;;;;;;;;;;;;;8.50;51.88;99017.06;6195178;23;19924;-75
2021/01/21 01:19:37;;;;;;;;;;;;;;;8.46;53.15;99004.03;6172664;23;19927;-76
2021/01/21 01:22:06;;;;;;;;;;;;;;;8.44;52.98;99002.34;6171874;23;19924;-76
2021/01/21 01:24:33;;;;;;;;;;;;;;;8.41;53.47;99006.00;6180238;23;20197;-75
2021/01/21 01:27:00;;;;;;;;;;;;;;;8.38;53.40;99008.78;6179849;23;20011;-76
2021/01/21 01:29:52;;;;;;;;;;;;;;;8.35;53.40;98992.25;6176104;23;19927;-75
2021/01/21 01:32:19;;;;;;;;;;;;;;;8.33;54.42;98987.06;6179531;23;19952;-75
2021/01/21 01:34:50;;;;;;;;;;;;;;;8.30;54.74;98980.16;6183179;23;19931;-75
2021/01/21 01:37:18;;;;;;;;;;;;;;;8.27;54.48;98979.41;6182491;23;19967;-75
2021/01/21 01:39:53;;;;;;;;;;;;;;;8.25;55.29;98978.66;6176849;23;20126;-76
2021/01/21 01:42:44;;;;;;;;;;;;;;;8.23;55.24;98975.22;6176773;23;19984;-76
2021/01/21 01:45:15;;;;;;;;;;;;;;;8.20;55.74;98976.22;6176038;23;19940;-76
2021/01/21 01:47:45;;;;;;;;;;;;;;;8.18;55.94;98975.44;6180842;23;19930;-75
2021/01/21 01:50:24;;;;;;;;;;;;;;;8.18;56.27;98967.56;6173640;23;20547;-76
2021/01/21 01:52:53;;;;;;;;;;;;;;;8.19;56.15;98976.28;6171871;23;19982;-75
2021/01/21 01:55:23;;;;;;;;;;;;;;;8.18;55.97;98966.69;6172098;23;19924;-75
2021/01/21 01:57:59;;;;;;;;;;;;;;;8.18;56.32;98962.28;6167049;23;20358;-75
2021/01/21 02:00:41;;;;;;;;;;;;;;;8.18;56.05;98964.91;6193496;23;20379;-75
2021/01/21 02:03:08;;;;;;;;;;;;;;;8.20;56.52;98960.41;6199130;23;19930;-75
2021/01/21 02:05:43;;;;;;;;;;;;;;;8.23;56.76;98948.88;6179751;23;20409;-76
2021/01/21 02:08:10;;;;;;;;;;;;;;;8.25;56.72;98942.63;6171760;23;20014;-76
2021/01/21 02:10:38;;;;;;;;;;;;;;;8.26;56.93;98941.69;6197816;23;19947;-76
2021/01/21 02:13:29;;;;;;;;;;;;;;;8.27;56.86;98950.44;6166541;23;19924;-76
2021/01/21 02:16:13;;;;;;;;;;;;;;;8.29;56.96;98948.59;6172322;23;19928;-76
2021/01/21 02:18:42;;;;;;;;;;;;;;;8.28;56.70;98936.34;6171355;23;19924;-76
2021/01/21 02:21:33;;;;;;;;;;;;;;;8.29;57.01;98941.53;6174179;23;19927;-75
2021/01/21 02:24:16;;;;;;;;;;;;;;;8.30;57.34;98940.63;6042858;23;19962;-76
2021/01/21 02:26:49;;;;;;;;;;;;;;;8.51;56.54;98923.91;6170515;23;19954;-76
2021/01/21 02:29:19;;;;;;;;;;;;;;;8.54;56.50;98918.50;6175783;23;20314;-76
2021/01/21 02:32:12;;;;;;;;;;;;;;;8.55;57.01;98928.09;6180698;23;19993;-76
2021/01/21 02:34:59;;;;;;;;;;;;;;;8.61;56.81;98909.34;6060933;23;19928;-76
2021/01/21 02:37:27;;;;;;;;;;;;;;;8.72;54.92;98920.22;6203052;23;19924;-76
2021/01/21 02:40:00;;;;;;;;;;;;;;;8.85;53.35;98911.72;6172446;23;19932;-76
2021/01/21 02:42:44;;;;;;;;;;;;;;;8.90;52.13;98913.19;6175012;23;19952;-76
2021/01/21 02:45:15;;;;;;;;;;;;;;;8.97;50.48;98908.47;6180419;23;20374;-76
2021/01/21 02:47:47;;;;;;;;;;;;;;;9.00;50.38;98912.75;6202025;23;20382;-76
2021/01/21 02:50:15;;;;;;;;;;;;;;;9.05;49.86;98916.84;6199205;23;20361;-76
2021/01/21 02:52:48;;;;;;;;;;;;;;;9.11;49.33;98910.41;6198107;23;20319;-76
2021/01/21 02:55:19;;;;;;;;;;;;;;;9.11;48.20;98910.41;6166578;23;19947;-76
2021/01/21 02:57:57;;;;;;;;;;;;;;;9.12;48.07;98909.47;6166412;23;20018;-76
2021/01/21 03:00:25;;;;;;;;;;;;;;;9.14;48.27;98897.91;6171846;23;19928;-76
2021/01/21 03:02:56;;;;;;;;;;;;;;;9.15;47.86;98898.75;6171837;23;19920;-76
2021/01/21 03:05:28;;;;;;;;;;;;;;;9.18;47.68;98889.84;6172400;23;19924;-76
2021/01/21 03:07:56;;;;;;;;;;;;;;;8.99;48.43;98897.84;6200406;23;19998;-76
2021/01/21 03:10:23;;;;;;;;;;;;;;;8.82;49.45;98896.06;6198765;23;20403;-76
2021/01/21 03:12:54;;;;;;;;;;;;;;;8.71;49.90;98886.88;6180225;23;19935;-76
2021/01/21 03:15:21;;;;;;;;;;;;;;;8.64;50.91;98883.69;6174775;23;19962;-76
2021/01/21 03:18:04;;;;;;;;;;;;;;;8.59;51.44;98875.16;6176838;23;20246;-76
2021/01/21 03:20:35;;;;;;;;;;;;;;;8.56;51.31;98877.97;6199728;23;20826;-76
2021/01/21 03:23:02;;;;;;;;;;;;;;;8.53;51.61;98880.72;6171795;23;19947;-76
2021/01/21 03:25:30;;;;;;;;;;;;;;;8.52;52.07;98883.44;6171590;23;20327;-76
2021/01/21 03:28:04;;;;;;;;;;;;;;;8.50;52.96;98882.66;6179872;23;19927;-76
2021/01/21 03:30:33;;;;;;;;;;;;;;;8.47;52.94;98876.63;6179764;23;19924;-76
2021/01/21 03:33:01;;;;;;;;;;;;;;;8.44;53.23;98884.66;6176871;23;19995;-76
2021/01/21 03:35:37;;;;;;;;;;;;;;;8.44;53.10;98879.38;6176994;23;19947;-76
2021/01/21 03:38:04;;;;;;;;;;;;;;;8.38;53.87;98876.16;6172101;23;20003;-76
2021/01/21 03:40:38;;;;;;;;;;;;;;;8.39;53.67;98872.59;6180165;23;20002;-76
2021/01/21 03:43:04;;;;;;;;;;;;;;;8.38;54.24;98878.78;6180076;23;20278;-76
2021/01/21 03:45:51;;;;;;;;;;;;;;;8.36;54.42;98884.13;6207120;23;20007;-76
2021/01/21 03:48:18;;;;;;;;;;;;;;;8.34;54.79;98866.69;6178308;23;19924;-75
2021/01/21 03:51:06;;;;;;;;;;;;;;;8.31;54.78;98855.41;6119817;23;20658;-76
2021/01/21 03:53:35;;;;;;;;;;;;;;;8.30;55.38;98855.47;6166551;23;19994;-75
2021/01/21 03:56:23;;;;;;;;;;;;;;;8.28;55.77;98854.69;6171376;23;19945;-75
2021/01/21 03:58:52;;;;;;;;;;;;;;;8.28;55.60;98842.34;6172472;23;20033;-76
2021/01/21 04:01:20;;;;;;;;;;;;;;;8.26;55.70;98838.97;6173382;23;19928;-75
2021/01/21 04:03:50;;;;;;;;;;;;;;;8.25;55.91;98837.25;6175292;23;19951;-76
2021/01/21 04:06:19;;;;;;;;;;;;;;;8.24;55.64;98840.78;6157046;23;19924;-76
2021/01/21 04:08:49;;;;;;;;;;;;;;;8.20;56.10;98833.13;6174011;23;19927;-76
2021/01/21 04:11:35;;;;;;;;;;;;;;;8.19;56.08;98819.09;6181013;23;19939;-76
2021/01/21 04:14:06;;;;;;;;;;;;;;;8.20;56.18;98822.59;6177001;23;19994;-76
2021/01/21 04:16:36;;;;;;;;;;;;;;;8.18;56.56;98814.78;6174533;23;19930;-76
2021/01/21 04:19:04;;;;;;;;;;;;;;;8.19;56.51;98813.81;6174155;23;20378;-76
2021/01/21 04:21:31;;;;;;;;;;;;;;;8.17;56.39;98809.56;6174708;23;19934;-75
2021/01/21 04:24:10;;;;;;;;;;;;;;;8.16;56.71;98803.44;6180219;23;19931;-76
2021/01/21 04:26:45;;;;;;;;;;;;;;;8.16;57.16;98786.81;6180365;23;19950;-76
2021/01/21 04:29:14;;;;;;;;;;;;;;;8.25;56.80;98799.53;6180985;23;19927;-76
2021/01/21 04:31:47;;;;;;;;;;;;;;;8.51;54.53;98784.22;6179888;23;20006;-76
2021/01/21 04:34:19;;;;;;;;;;;;;;;8.62;52.80;98782.75;6170244;23;20027;-76
2021/01/21 04:36:47;;;;;;;;;;;;;;;8.77;51.31;98773.22;6174624;23;19924;-76
2021/01/21 04:39:25;;;;;;;;;;;;;;;8.86;50.12;98768.41;6181215;23;20006;-76
2021/01/21 04:41:52;;;;;;;;;;;;;;;8.95;49.39;98768.75;6181363;23;19962;-76
2021/01/21 04:44:22;;;;;;;;;;;;;;;9.01;48.73;98758.81;6209566;23;19930;-76
2021/01/21 04:46:59;;;;;;;;;;;;;;;9.09;48.60;98741.66;6180019;23;20431;-76
2021/01/21 04:49:32;;;;;;;;;;;;;;;9.04;48.99;98740.22;6199428;23;20236;-76
2021/01/21 04:52:04;;;;;;;;;;;;;;;8.93;50.24;98736.34;6181135;23;19927;-77
2021/01/21 04:54:39;;;;;;;;;;;;;;;8.91;50.95;98745.28;6180849;23;19951;-76
2021/01/21 04:57:12;;;;;;;;;;;;;;;8.93;51.42;98741.63;6180188;23;19978;-76
2021/01/21 04:59:47;;;;;;;;;;;;;;;9.09;50.05;98723.19;6180123;23;19967;-76
2021/01/21 05:02:22;;;;;;;;;;;;;;;9.21;48.54;98728.75;6175782;23;20129;-76
2021/01/21 05:05:10;;;;;;;;;;;;;;;9.23;48.20;98717.19;6141807;23;19936;-76
2021/01/21 05:07:44;;;;;;;;;;;;;;;9.29;47.39;98722.13;6174976;23;19931;-76
2021/01/21 05:10:13;;;;;;;;;;;;;;;9.32;47.29;98723.72;6181841;23;19954;-76
2021/01/21 05:12:41;;;;;;;;;;;;;;;9.40;46.19;98720.69;6178850;23;20374;-76
2021/01/21 05:15:33;;;;;;;;;;;;;;;9.15;47.85;98708.81;6202765;23;19955;-76
2021/01/21 05:18:35;;;;;;;;;;;;;;;8.97;49.10;98708.88;6173811;23;20193;-76
2021/01/21 05:21:24;;;;;;;;;;;;;;;8.89;49.81;98704.94;6207916;23;19924;-76
2021/01/21 05:24:16;;;;;;;;;;;;;;;8.82;50.75;98695.66;6182225;23;19927;-76
2021/01/21 05:27:02;;;;;;;;;;;;;;;8.77;51.17;98686.22;6209857;23;20013;-76
2021/01/21 05:29:48;;;;;;;;;;;;;;;8.74;51.32;98683.72;6198527;23;19979;-76
2021/01/21 05:32:15;;;;;;;;;;;;;;;8.74;51.71;98689.00;6192857;23;20003;-76
2021/01/21 05:34:49;;;;;;;;;;;;;;;8.71;52.47;98683.91;6170787;23;20454;-76
2021/01/21 05:37:26;;;;;;;;;;;;;;;8.70;52.16;98678.72;6172741;23;20638;-75
2021/01/21 05:40:30;;;;;;;;;;;;;;;8.69;52.93;98672.56;6198013;23;19924;-76
2021/01/21 05:43:04;;;;;;;;;;;;;;;8.66;53.40;98667.47;6173675;23;19920;-76
2021/01/21 05:45:52;;;;;;;;;;;;;;;8.64;52.81;98671.97;6193654;23;19924;-76
2021/01/21 05:48:20;;;;;;;;;;;;;;;8.67;53.54;98682.34;6171470;23;19947;-75
2021/01/21 05:50:48;;;;;;;;;;;;;;;8.63;53.96;98671.13;6175911;23;19924;-75
2021/01/21 05:53:17;;;;;;;;;;;;;;;8.63;54.27;98675.56;6175432;23;19920;-76
2021/01/21 05:55:54;;;;;;;;;;;;;;;8.61;54.58;98672.97;6173568;23;19924;-76
2021/01/21 05:58:26;;;;;;;;;;;;;;;8.73;54.06;98673.25;6160930;23;19928;-76
2021/01/21 06:00:54;;;;;;;;;;;;;;;8.68;54.60;98676.16;6192032;23;19978;-76
2021/01/21 06:03:53;;;;;;;;;;;;;;;8.63;54.92;98668.47;6183106;23;19924;-76
2021/01/21 06:06:26;;;;;;;;;;;;;;;8.61;55.14;98664.22;6198720;23;19928;-76
2021/01/21 06:08:54;;;;;;;;;;;;;;;8.59;55.18;98659.03;6200228;23;19981;-76
2021/01/21 06:11:21;;;;;;;;;;;;;;;8.59;55.26;98645.03;6205964;23;19924;-76
2021/01/21 06:13:49;;;;;;;;;;;;;;;8.59;55.42;98653.75;6195868;23;19930;-76
2021/01/21 06:16:16;;;;;;;;;;;;;;;8.58;55.87;98651.22;6198845;23;20858;-76
2021/01/21 06:18:44;;;;;;;;;;;;;;;8.56;55.82;98650.44;6198290;23;19920;-76
2021/01/21 06:21:36;;;;;;;;;;;;;;;8.55;55.86;98652.22;6194977;23;19924;-76
2021/01/21 06:24:11;;;;;;;;;;;;;;;8.56;55.53;98631.97;6173750;23;19947;-75
2021/01/21 06:26:46;;;;;;;;;;;;;;;8.55;55.92;98627.63;6196255;23;19956;-76
2021/01/21 06:29:15;;;;;;;;;;;;;;;8.53;56.05;98609.28;6194952;23;20014;-79
2021/01/21 06:31:43;;;;;;;;;;;;;;;8.50;56.47;98606.81;6195557;23;19972;-76
2021/01/21 06:34:11;;;;;;;;;;;;;;;8.52;56.39;98597.03;6198315;23;19974;-76
2021/01/21 06:36:41;;;;;;;;;;;;;;;8.52;56.58;98590.91;6204229;23;19975;-75
2021/01/21 06:39:09;;;;;;;;;;;;;;;8.50;56.92;98592.78;6208559;23;19931;-76
2021/01/21 06:41:40;;;;;;;;;;;;;;;8.49;57.61;98596.38;6205886;23;19927;-77
2021/01/21 06:44:08;;;;;;;;;;;;;;;8.58;56.71;98601.13;6201241;23;20332;-76
2021/01/21 06:46:34;;;;;;;;;;;;;;;8.78;54.82;98598.25;6204938;23;19920;-79
2021/01/21 06:49:01;;;;;;;;;;;;;;;8.90;53.76;98591.47;6205208;23;19924;-76
2021/01/21 06:51:28;;;;;;;;;;;;;;;9.00;51.73;98599.75;6203463;23;19924;-76
2021/01/21 06:53:56;;;;;;;;;;;;;;;9.03;51.24;98602.19;6181243;23;20181;-76
2021/01/21 06:56:30;;;;;;;;;;;;;;;9.08;50.58;98591.41;6200193;23;19999;-75
2021/01/21 07:02:54;;;;;;;;;;;;;;;9.14;49.68;98591.91;5987304;23;20344;-79
2021/01/21 07:05:35;;;;;;;;;;;;;;;9.19;49.28;98591.63;6069601;23;20300;-76
2021/01/21 07:08:06;;;;;;;;;;;;;;;9.21;48.66;98583.66;6076827;23;19940;-76
2021/01/21 07:10:34;;;;;;;;;;;;;;;9.25;48.05;98580.75;6068184;23;19926;-76
2021/01/21 07:13:04;;;;;;;;;;;;;;;9.23;47.58;98572.09;6018434;23;19930;-76
2021/01/21 07:15:41;;;;;;;;;;;;;;;9.06;49.56;98566.88;6071938;23;20281;-76
2021/01/21 07:18:15;;;;;;;;;;;;;;;8.94;50.25;98584.25;6024225;23;19926;-76
2021/01/21 07:21:02;;;;;;;;;;;;;;;8.88;50.90;98558.25;6075536;23;19921;-75
2021/01/21 07:23:31;;;;;;;;;;;;;;;8.84;51.43;98552.28;6084808;23;20000;-76
2021/01/21 07:26:12;;;;;;;;;;;;;;;8.82;51.79;98556.78;6069959;23;19989;-75
2021/01/21 07:28:56;;;;;;;;;;;;;;;8.81;52.71;98555.06;6159447;23;19924;-75
2021/01/21 07:31:22;;;;;;;;;;;;;;;8.82;52.72;98546.22;6164300;23;20347;-75
2021/01/21 07:34:11;;;;;;;;;;;;;;;8.82;53.01;98540.13;6157303;23;19974;-75
2021/01/21 07:36:38;;;;;;;;;;;;;;;8.84;53.38;98561.94;6167016;23;19930;-75
2021/01/21 07:39:04;;;;;;;;;;;;;;;8.84;53.73;98552.28;6203095;23;20367;-75
2021/01/21 07:41:50;;;;;;;;;;;;;;;8.83;54.40;98541.81;6197011;23;19956;-75
2021/01/21 07:44:17;;;;;;;;;;;;;;;8.87;53.56;98543.34;6190262;23;20275;-76
2021/01/21 07:46:43;;;;;;;;;;;;;;;8.87;53.97;98538.91;6190477;23;19923;-75
2021/01/21 07:49:22;;;;;;;;;;;;;;;8.87;54.33;98536.28;6189838;23;19931;-75
2021/01/21 07:51:59;;;;;;;;;;;;;;;8.89;54.43;98537.06;6192745;23;20382;-75
2021/01/21 07:54:29;;;;;;;;;;;;;;;8.88;55.04;98532.72;6186104;23;19928;-74
2021/01/21 07:56:56;;;;;;;;;;;;;;;8.89;54.88;98523.88;6186682;23;19959;-74
2021/01/21 07:59:22;;;;;;;;;;;;;;;8.93;54.40;98522.75;6192240;23;19953;-75
2021/01/21 08:01:56;;;;;;;;;;;;;;;8.94;55.10;98524.47;6195586;23;19959;-75
2021/01/21 08:04:24;;;;;;;;;;;;;;;8.95;54.88;98512.97;6203552;23;19927;-75
2021/01/21 08:06:55;;;;;;;;;;;;;;;8.97;54.37;98504.97;6207207;23;19920;-75
2021/01/21 08:09:21;;;;;;;;;;;;;;;8.99;54.80;98507.53;6185533;23;19930;-74
2021/01/21 08:11:49;;;;;;;;;;;;;;;9.02;55.32;98488.88;6183553;23;20235;-75
2021/01/21 08:14:16;;;;;;;;;;;;;;;9.04;55.13;98495.78;6188391;23;19928;-75
2021/01/21 08:16:43;;;;;;;;;;;;;;;9.04;55.21;98479.94;6191322;23;19924;-74
2021/01/21 08:19:11;;;;;;;;;;;;;;;9.06;55.93;98496.53;6189148;23;20293;-75
2021/01/21 08:21:39;;;;;;;;;;;;;;;9.06;55.29;98483.34;6188947;23;19924;-74
2021/01/21 08:24:08;;;;;;;;;;;;;;;9.09;55.48;98477.06;6184863;23;20310;-75
2021/01/21 08:26:36;;;;;;;;;;;;;;;9.13;55.57;98468.03;6185646;23;19928;-75
2021/01/21 08:29:03;;;;;;;;;;;;;;;9.20;55.11;98463.25;6202966;23;20251;-75
2021/01/21 08:31:36;;;;;;;;;;;;;;;9.24;55.31;98465.59;6207066;23;19962;-75
2021/01/21 08:34:15;;;;;;;;;;;;;;;9.29;55.26;98463.53;6177524;23;19924;-75
2021/01/21 08:37:05;;;;;;;;;;;;;;;9.40;55.35;98459.44;6201099;23;19924;-75
2021/01/21 08:39:33;;;;;;;;;;;;;;;9.54;54.29;98453.34;6199916;23;19923;-74
2021/01/21 08:42:07;;;;;;;;;;;;;;;9.85;52.66;98457.63;6175217;23;19942;-75
2021/01/21 08:44:38;;;;;;;;;;;;;;;10.06;50.97;98466.03;6179538;23;19920;-75
2021/01/21 08:47:14;;;;;;;;;;;;;;;9.95;52.03;98457.91;6177686;23;20189;-75
2021/01/21 08:53:01;;;;;;;;;;;;;;;10.65;51.02;98456.25;6201337;23;19987;-75
2021/01/21 08:55:49;;;;;;;;;;;;;;;10.83;49.60;98460.34;6175065;23;20200;-76
2021/01/21 08:58:20;;;;;;;;;;;;;;;10.79;48.36;98440.34;6196645;23;20002;-76
2021/01/21 09:01:06;;;;;;;;;;;;;;;10.84;47.89;98450.63;6176525;23;19924;-78
2021/01/21 09:03:36;;;;;;;;;;;;;;;10.90;46.88;98461.66;6177251;23;19928;-76
2021/01/21 09:06:04;;;;;;;;;;;;;;;10.97;46.23;98438.28;6177258;23;19927;-76
2021/01/21 09:08:46;;;;;;;;;;;;;;;11.06;45.57;98439.50;6176490;23;19924;-76
2021/01/21 09:11:33;;;;;;;;;;;;;;;11.13;44.78;98438.94;6206126;23;19930;-76
2021/01/21 09:14:03;;;;;;;;;;;;;;;11.05;45.81;98427.19;6178190;23;19999;-76
2021/01/21 09:16:42;;;;;;;;;;;;;;;11.04;45.03;98434.28;6179379;23;20244;-76
2021/01/21 09:19:09;;;;;;;;;;;;;;;10.89;45.85;98433.50;6199099;23;19931;-76
2021/01/21 09:21:56;;;;;;;;;;;;;;;10.67;46.82;98438.50;6183873;23;20698;-76
2021/01/21 09:24:57;;;;;;;;;;;;;;;10.51;48.24;98442.13;6167477;23;19939;-76
2021/01/21 09:27:34;;;;;;;;;;;;;;;10.41;48.93;98462.16;6167244;23;20013;-75
2021/01/21 09:30:08;;;;;;;;;;;;;;;10.30;49.21;98455.69;6171018;23;19923;-76
2021/01/21 09:32:37;;;;;;;;;;;;;;;10.19;50.14;98458.19;6172001;23;19955;-75
2021/01/21 09:35:05;;;;;;;;;;;;;;;10.14;50.13;98452.34;6186128;23;20115;-75
2021/01/21 09:37:34;;;;;;;;;;;;;;;10.08;51.08;98461.47;6186284;23;20278;-75
2021/01/21 09:40:02;;;;;;;;;;;;;;;10.05;50.89;98474.88;6202824;23;20315;-75
2021/01/21 09:42:29;;;;;;;;;;;;;;;9.99;51.37;98485.81;6208368;23;19924;-75
2021/01/21 09:44:55;;;;;;;;;;;;;;;9.92;52.30;98469.50;6208135;23;20489;-75
2021/01/21 09:47:37;;;;;;;;;;;;;;;9.92;52.20;98463.38;6207053;23;19979;-75
2021/01/21 09:50:06;;;;;;;;;;;;;;;9.95;52.27;98442.03;6175469;23;19930;-76
2021/01/21 09:52:33;;;;;;;;;;;;;;;10.01;52.33;98452.25;6174901;23;19924;-75
2021/01/21 09:55:04;;;;;;;;;;;;;;;10.04;52.42;98446.75;6180418;23;19935;-76
2021/01/21 09:57:50;;;;;;;;;;;;;;;10.02;52.75;98451.31;6201562;23;19935;-76
2021/01/21 10:00:29;;;;;;;;;;;;;;;10.01;53.49;98454.03;6196456;23;20035;-76
2021/01/21 10:02:59;;;;;;;;;;;;;;;10.00;53.12;98455.00;6191297;23;20001;-76
2021/01/21 10:05:37;;;;;;;;;;;;;;;9.93;53.52;98465.91;6190556;23;20255;-76
2021/01/21 10:08:13;;;;;;;;;;;;;;;9.92;53.74;98461.56;6165947;23;20039;-76
2021/01/21 10:10:44;;;;;;;;;;;;;;;9.90;53.90;98467.88;6195424;23;19924;-76
2021/01/21 10:13:12;;;;;;;;;;;;;;;9.90;53.93;98466.13;6194683;23;20035;-76
2021/01/21 10:15:46;;;;;;;;;;;;;;;9.91;54.24;98477.53;6168373;23;19924;-75
2021/01/21 10:18:13;;;;;;;;;;;;;;;9.89;54.21;98469.69;6197955;23;20391;-76
2021/01/21 10:20:44;;;;;;;;;;;;;;;9.86;54.39;98472.53;6170293;23;19983;-76
2021/01/21 10:23:13;;;;;;;;;;;;;;;9.86;54.75;98477.81;6179288;23;20430;-76
2021/01/21 10:25:42;;;;;;;;;;;;;;;9.83;54.60;98488.53;6177614;23;19934;-76
2021/01/21 10:28:16;;;;;;;;;;;;;;;9.85;54.37;98491.09;6210097;23;19923;-76
2021/01/21 10:30:54;;;;;;;;;;;;;;;9.97;53.99;98482.44;6207492;23;19938;-76
2021/01/21 10:33:30;;;;;;;;;;;;;;;9.97;54.60;98490.34;6192991;23;19927;-76
2021/01/21 10:36:15;;;;;;;;;;;;;;;10.06;54.45;98492.44;6207151;23;19923;-76
2021/01/21 10:38:56;;;;;;;;;;;;;;;10.16;54.41;98468.09;6237615;23;19938;-76
2021/01/21 10:41:32;;;;;;;;;;;;;;;10.36;53.67;98486.25;6210250;23;19942;-76
2021/01/21 10:44:10;;;;;;;;;;;;;;;10.69;52.60;98478.88;6237197;23;19923;-76
2021/01/21 10:46:43;;;;;;;;;;;;;;;10.86;51.06;98473.38;6206784;23;19954;-75
2021/01/21 10:49:14;;;;;;;;;;;;;;;11.08;49.23;98480.78;6232316;23;19924;-76
2021/01/21 10:51:41;;;;;;;;;;;;;;;11.32;48.01;98473.94;6210314;23;19999;-75
2021/01/21 10:54:19;;;;;;;;;;;;;;;11.70;46.13;98481.09;6210313;23;19923;-76
2021/01/21 10:56:54;;;;;;;;;;;;;;;11.97;44.93;98493.44;6210680;23;19930;-76
2021/01/21 10:59:53;;;;;;;;;;;;;;;11.81;44.81;98475.91;6201291;23;19924;-75
2021/01/21 11:02:21;;;;;;;;;;;;;;;11.81;44.46;98456.53;6228363;23;20299;-76
2021/01/21 11:04:48;;;;;;;;;;;;;;;11.98;43.88;98469.50;6226646;23;19946;-76
2021/01/21 11:07:17;;;;;;;;;;;;;;;12.31;43.05;98478.69;6228911;23;19943;-76
2021/01/21 11:10:05;;;;;;;;;;;;;;;12.12;43.79;98487.06;6234328;23;19930;-76
2021/01/21 11:12:59;;;;;;;;;;;;;;;11.96;44.88;98495.22;6208832;23;20050;-79
2021/01/21 11:15:38;;;;;;;;;;;;;;;11.82;46.08;98503.25;6208209;23;20357;-76
2021/01/21 11:18:31;;;;;;;;;;;;;;;11.69;47.19;98503.22;6201814;23;19924;-77
2021/01/21 11:21:17;;;;;;;;;;;;;;;11.57;47.53;98510.19;6222911;23;20023;-78
2021/01/21 11:23:46;;;;;;;;;;;;;;;11.41;49.01;98505.09;6195434;23;19951;-75
2021/01/21 11:26:20;;;;;;;;;;;;;;;11.49;48.73;98505.44;6223886;23;19989;-75
2021/01/21 11:29:08;;;;;;;;;;;;;;;11.56;48.70;98519.97;6193863;23;19923;-76
2021/01/21 11:31:46;;;;;;;;;;;;;;;11.59;48.90;98510.97;6191228;23;20787;-76
2021/01/21 11:34:17;;;;;;;;;;;;;;;11.69;48.98;98535.00;6194536;23;20010;-79
2021/01/21 11:36:47;;;;;;;;;;;;;;;11.90;48.59;98530.09;6197132;23;19992;-77
2021/01/21 11:39:31;;;;;;;;;;;;;;;12.58;47.10;98522.75;6233825;23;19923;-77
2021/01/21 11:42:04;;;;;;;;;;;;;;;12.73;47.02;98545.53;6202167;23;20663;-77
2021/01/21 11:44:36;;;;;;;;;;;;;;;12.57;47.34;98540.47;6204642;23;19927;-77
2021/01/21 11:47:19;;;;;;;;;;;;;;;12.43;48.24;98545.91;6207868;23;20022;-77
2021/01/21 11:49:55;;;;;;;;;;;;;;;12.36;48.63;98532.22;6210049;23;20291;-77
2021/01/21 11:52:27;;;;;;;;;;;;;;;13.12;46.51;98542.78;6208309;23;19923;-78
2021/01/21 11:54:58;;;;;;;;;;;;;;;13.04;47.04;98546.00;6230306;23;19928;-77
2021/01/21 11:57:32;;;;;;;;;;;;;;;12.60;48.24;98542.91;6205952;23;19981;-77
2021/01/21 12:00:05;;;;;;;;;;;;;;;12.40;49.19;98544.31;6206323;23;19923;-76
2021/01/21 12:02:40;;;;;;;;;;;;;;;12.28;49.36;98553.13;6207395;23;19930;-77
2021/01/21 12:05:30;;;;;;;;;;;;;;;12.22;49.56;98567.63;6208714;23;19928;-77
2021/01/21 12:08:32;;;;;;;;;;;;;;;12.22;49.80;98564.16;6201294;23;19924;-77
2021/01/21 12:11:05;;;;;;;;;;;;;;;12.22;49.60;98578.25;6207205;23;20293;-77
2021/01/21 12:13:39;;;;;;;;;;;;;;;12.29;49.83;98581.31;6232578;23;19927;-77
2021/01/21 12:16:26;;;;;;;;;;;;;;;12.36;49.33;98577.31;6235721;23;20378;-77
2021/01/21 12:18:57;;;;;;;;;;;;;;;12.60;49.06;98584.50;6203703;23;19989;-78
2021/01/21 12:21:24;;;;;;;;;;;;;;;12.60;48.88;98580.03;6219246;23;20243;-77
2021/01/21 12:23:51;;;;;;;;;;;;;;;12.52;49.28;98590.34;6218645;23;19939;-77
2021/01/21 12:26:18;;;;;;;;;;;;;;;12.73;48.77;98597.75;6213441;23;20326;-77
2021/01/21 12:35:33;;;;;;;;;;;;;;;;;;;;;
2021/01/21 12:38:40;;;;;;;;;;;;;;;16.76;39.57;98584.00;6223811;23;20704;-76
2021/01/21 12:44:43;;;;;;;;;;;;;;;17.70;37.86;98588.16;6139681;23;19924;-76
2021/01/21 12:47:46;;;;;;;;;;;;;;;18.27;36.91;98580.28;6131745;23;20340;-77
2021/01/21 12:50:52;;;;;;;;;;;;;;;18.70;36.52;98575.34;6104227;23;19929;-75
2021/01/21 12:53:30;;;;;;;;;;;;;;;19.18;35.59;98570.78;6127701;23;20447;-76
2021/01/21 12:56:10;;;;;;;;;;;;;;;19.12;35.91;98588.31;6126838;23;19921;-76
2021/01/21 12:59:10;;;;;;;;;;;;;;;19.44;35.42;98576.25;6105301;23;19924;-76
2021/01/21 13:01:38;;;;;;;;;;;;;;;19.08;36.34;98582.41;6127886;23;19955;-76
2021/01/21 13:04:05;;;;;;;;;;;;;;;19.45;35.88;98582.44;6126232;23;19920;-77
2021/01/21 13:06:32;;;;;;;;;;;;;;;19.47;35.89;98585.81;6140399;23;19924;-76
2021/01/21 13:09:45;;;;;;;;;;;;;;;;;;;;;
2021/01/21 13:15:27;;;;;;;;;;;;;;;18.91;37.76;98594.75;6133326;23;20293;-77
2021/01/21 13:18:03;;;;;;;;;;;;;;;18.74;38.40;98584.78;6108973;23;19944;-77
2021/01/21 13:23:11;;;;;;;;;;;;;;;18.77;38.47;98597.00;5077699;27;20114;-79
2021/01/21 13:25:57;;;;;;;;;;;;;;;18.64;38.86;98602.72;5108744;27;19928;-78
2021/01/21 13:28:35;;;;;;;;;;;;;;;18.44;39.23;98597.41;5109488;27;20160;-78
2021/01/21 13:31:04;;;;;;;;;;;;;;;18.17;39.97;98603.53;5104301;28;19967;-78
2021/01/21 13:33:33;;;;;;;;;;;;;;;18.01;40.44;98596.91;5103235;28;19999;-78
2021/01/21 13:36:00;;;;;;;;;;;;;;;17.63;40.91;98595.91;5097937;28;20391;-78
2021/01/21 13:38:31;;;;;;;;;;;;;;;17.48;41.62;98607.97;5097285;28;19928;-79
2021/01/21 13:41:03;;;;;;;;;;;;;;;17.21;42.08;98618.31;5091055;28;19939;-79
2021/01/21 13:43:31;;;;;;;;;;;;;;;16.94;42.67;98613.63;5077267;28;19985;-78
2021/01/21 13:45:58;;;;;;;;;;;;;;;16.75;43.16;98617.00;5079384;27;20030;-78
2021/01/21 13:48:27;;;;;;;;;;;;;;;16.54;43.65;98615.22;5077060;28;19932;-78
2021/01/21 13:50:59;;;;;;;;;;;;;;;16.48;43.86;98629.09;5080885;28;19932;-77
2021/01/21 13:53:26;;;;;;;;;;;;;;;16.35;44.09;98626.63;5104534;27;20152;-78